Terminal Aerodrome Forecast
Issued by NWS

Home | Current Version | Previous Version | Text Only | Print | Product List | Glossary On
Versions: 1 2 3 4 5 6 7 8 9 10 11 12 13 14 15 16 17 18 19 20 21 22 23 24 25 26 27 28 29 30 31 32
000
FTAK31 PANC 031746
TAFAEN
TAF
PAEN 031746Z 0318/0418 00000KT P6SM -RA BKN060 OVC080
     FM032100 20011KT P6SM -SHRA OVC030
     FM040600 03011KT P6SM VCSH BKN045 WS020/09030KT
     FM041500 02012KT 6SM -RA BR SCT010 BKN035=

USA.gov is the U.S. government's official web portal to all federal, state and local government web resources and services.